Time;durP1;ratioP1;P1;durP2;ratioP2;P2;SDS_P1;SDS_P2;PMS_P1;PMS_P2;Temp;Humidity;BMP_temperature;BMP_pressure;BME280_temperature;BME280_humidity;BME280_pressure;Samples;Min_cycle;Max_cycle;Signal;HPM_P1;HPM_P2
2021/11/29 00:01:40;;;;;;;8.68;2.10;;;0.20;99.90;;;;;;4894574;29;20047;-88
2021/11/29 00:04:21;;;;;;;11.18;2.08;;;0.10;99.90;;;;;;4888401;29;20097;-88
2021/11/29 00:06:50;;;;;;;9.73;2.03;;;0.10;99.90;;;;;;4898169;29;20082;-89
2021/11/29 00:09:19;;;;;;;7.90;1.50;;;0.00;99.90;;;;;;4924858;29;20110;-87
2021/11/29 00:16:10;;;;;;;5.60;1.50;;;0.10;99.90;;;;;;4895176;29;20043;-87
2021/11/29 00:18:37;;;;;;;9.32;1.42;;;0.00;99.90;;;;;;4902171;29;20561;-87
2021/11/29 00:21:05;;;;;;;10.18;1.60;;;-0.10;99.90;;;;;;4877949;29;20119;-86
2021/11/29 00:23:34;;;;;;;7.68;1.48;;;-0.10;99.90;;;;;;4911731;29;20410;-86
2021/11/29 00:26:07;;;;;;;13.05;1.70;;;-0.10;99.90;;;;;;4926219;29;20047;-87
2021/11/29 00:28:42;;;;;;;6.82;1.52;;;-0.10;99.90;;;;;;4923561;29;20068;-87
2021/11/29 00:31:20;;;;;;;8.05;1.55;;;-0.10;99.90;;;;;;4881103;29;20044;-86
2021/11/29 00:33:49;;;;;;;8.93;1.30;;;-0.20;99.90;;;;;;4902697;29;20055;-87
2021/11/29 00:36:21;;;;;;;15.15;2.72;;;-0.10;99.90;;;;;;4902174;29;20253;-86
2021/11/29 00:39:16;;;;;;;6.10;1.77;;;-0.10;99.90;;;;;;4904302;29;20040;-88
2021/11/29 00:41:54;;;;;;;9.10;1.60;;;-0.10;99.90;;;;;;4884762;29;20497;-87
2021/11/29 00:44:54;;;;;;;15.80;1.55;;;-0.10;99.90;;;;;;4897998;29;20036;-88
2021/11/29 00:47:29;;;;;;;6.30;1.30;;;0.00;99.90;;;;;;4881244;29;20115;-88
2021/11/29 00:50:02;;;;;;;6.72;1.50;;;-0.10;99.90;;;;;;4923123;29;20040;-87
2021/11/29 00:52:28;;;;;;;8.18;1.40;;;0.00;99.90;;;;;;4904257;29;20327;-87
2021/11/29 00:58:31;;;;;;;7.85;1.50;;;0.00;99.90;;;;;;4935009;29;20561;-86
2021/11/29 01:00:58;;;;;;;8.15;1.10;;;0.00;99.90;;;;;;4885131;29;20056;-89
2021/11/29 01:03:24;;;;;;;7.53;1.45;;;0.10;99.90;;;;;;4887824;29;20090;-88
2021/11/29 01:05:59;;;;;;;8.68;1.70;;;0.10;99.90;;;;;;4884077;29;20428;-88
2021/11/29 01:08:29;;;;;;;6.15;1.25;;;0.10;99.90;;;;;;4895778;29;20078;-88
2021/11/29 01:10:59;;;;;;;11.60;1.38;;;0.10;99.90;;;;;;4887199;29;20032;-89
2021/11/29 01:13:28;;;;;;;11.85;1.38;;;0.20;99.90;;;;;;4880820;29;20083;-86
2021/11/29 01:16:48;;;;;;;6.32;1.35;;;0.20;99.90;;;;;;4907349;29;20035;-88
2021/11/29 01:19:29;;;;;;;8.88;1.10;;;0.20;99.90;;;;;;4851280;29;20047;-88
2021/11/29 01:22:14;;;;;;;;;;;;;;;;;;;;;
2021/11/29 01:24:56;;;;;;;;;;;;;;;;;;;;;
2021/11/29 01:27:25;;;;;;;6.93;1.40;;;0.40;99.90;;;;;;4929006;28;20510;-88
2021/11/29 01:30:04;;;;;;;9.63;1.10;;;0.40;99.90;;;;;;4878698;29;20079;-86
2021/11/29 01:32:31;;;;;;;8.90;1.13;;;0.40;99.90;;;;;;4908244;29;20381;-86
2021/11/29 01:35:00;;;;;;;6.75;1.60;;;0.30;99.90;;;;;;4885187;29;20688;-86
2021/11/29 01:37:35;;;;;;;8.93;1.10;;;0.40;99.90;;;;;;4907603;29;20119;-86
2021/11/29 01:40:29;;;;;;;9.52;1.10;;;0.30;99.90;;;;;;4902491;29;20089;-86
2021/11/29 01:43:22;;;;;;;6.65;1.40;;;0.40;99.90;;;;;;4910535;29;20047;-85
2021/11/29 01:46:08;;;;;;;6.15;1.35;;;0.30;99.90;;;;;;4906371;29;20043;-86
2021/11/29 01:49:02;;;;;;;11.40;1.45;;;0.30;99.90;;;;;;4882940;29;20463;-87
2021/11/29 01:51:36;;;;;;;6.25;1.05;;;0.40;99.90;;;;;;4916433;29;20102;-86
2021/11/29 01:54:04;;;;;;;6.05;1.17;;;0.40;99.90;;;;;;4909631;29;20098;-86
2021/11/29 01:56:31;;;;;;;6.60;1.52;;;0.40;99.90;;;;;;4873583;29;20052;-86
2021/11/29 01:58:57;;;;;;;8.75;1.55;;;0.50;99.90;;;;;;4908053;29;20055;-87
2021/11/29 02:01:25;;;;;;;6.22;1.48;;;0.60;99.90;;;;;;4878315;29;20376;-86
2021/11/29 02:03:57;;;;;;;11.30;1.15;;;0.70;99.90;;;;;;4925732;29;20105;-86
2021/11/29 02:06:25;;;;;;;3.80;1.00;;;0.70;99.90;;;;;;4904110;29;20039;-86
2021/11/29 02:08:51;;;;;;;10.82;1.60;;;0.80;99.90;;;;;;4893374;29;20039;-86
2021/11/29 02:11:17;;;;;;;9.98;1.70;;;0.80;99.90;;;;;;4888103;29;20035;-85
2021/11/29 02:13:43;;;;;;;10.90;1.42;;;0.80;99.90;;;;;;4900756;29;20042;-86
2021/11/29 02:16:09;;;;;;;4.05;0.95;;;0.90;99.90;;;;;;4900108;29;20036;-86
2021/11/29 02:18:40;;;;;;;6.82;1.15;;;0.90;99.90;;;;;;4894171;29;20043;-86
2021/11/29 02:21:15;;;;;;;10.10;1.20;;;0.90;99.90;;;;;;4901032;29;20427;-86
2021/11/29 02:23:43;;;;;;;4.15;0.80;;;0.90;99.90;;;;;;4912746;29;20047;-88
2021/11/29 02:26:10;;;;;;;7.20;1.17;;;1.10;99.90;;;;;;4894571;29;20095;-85
2021/11/29 02:28:42;;;;;;;8.57;1.20;;;1.10;99.90;;;;;;4900144;29;20517;-87
2021/11/29 02:31:09;;;;;;;;;;;1.30;99.90;;;;;;4910433;29;20071;-86
2021/11/29 02:33:36;;;;;;;10.00;0.88;;;1.20;99.90;;;;;;4931225;29;20069;-87
2021/11/29 02:36:04;;;;;;;5.60;0.90;;;1.20;99.90;;;;;;4912394;29;20044;-88
2021/11/29 02:38:31;;;;;;;7.28;1.10;;;1.20;99.90;;;;;;4870593;29;20117;-88
2021/11/29 02:41:01;;;;;;;7.60;1.00;;;1.30;99.90;;;;;;4896216;29;20671;-89
2021/11/29 02:43:27;;;;;;;7.07;0.77;;;1.30;99.90;;;;;;4903924;29;20039;-87
2021/11/29 02:45:53;;;;;;;3.47;0.70;;;1.30;99.90;;;;;;4905422;29;20050;-90
2021/11/29 02:48:19;;;;;;;3.38;0.80;;;1.40;99.90;;;;;;4933609;29;20058;-86
2021/11/29 02:50:45;;;;;;;3.83;0.60;;;1.30;99.90;;;;;;4911444;29;20082;-85
2021/11/29 02:53:13;;;;;;;5.53;0.88;;;1.30;99.90;;;;;;4899607;29;20036;-88
2021/11/29 02:56:05;;;;;;;4.15;0.90;;;1.40;99.90;;;;;;4894283;29;20039;-90
2021/11/29 02:58:34;;;;;;;2.78;0.77;;;1.40;99.90;;;;;;4889126;29;20487;-88
2021/11/29 03:01:11;;;;;;;5.50;0.70;;;1.40;99.90;;;;;;4903683;29;20054;-89
2021/11/29 03:04:11;;;;;;;2.20;0.70;;;1.40;99.90;;;;;;4890921;29;20081;-88
2021/11/29 03:06:43;;;;;;;;;;;1.40;99.90;;;;;;4913079;29;20039;-88
2021/11/29 03:09:21;;;;;;;7.70;1.52;;;1.50;99.90;;;;;;4925012;28;20018;-90
2021/11/29 03:15:07;;;;;;;8.68;0.80;;;1.50;99.90;;;;;;4937236;29;20478;-86
2021/11/29 03:17:33;;;;;;;4.75;0.50;;;1.50;99.90;;;;;;4907016;29;20513;-86
2021/11/29 03:20:10;;;;;;;5.25;0.98;;;1.50;99.90;;;;;;4876533;29;20043;-87
2021/11/29 03:22:39;;;;;;;7.00;0.82;;;1.60;99.90;;;;;;4889049;29;20070;-87
2021/11/29 03:25:11;;;;;;;3.58;0.60;;;1.60;99.90;;;;;;4887960;29;20044;-87
2021/11/29 03:27:53;;;;;;;5.05;0.50;;;1.60;99.90;;;;;;4876233;29;20421;-87
2021/11/29 03:30:47;;;;;;;3.08;0.90;;;1.60;99.90;;;;;;4903245;29;20578;-89
2021/11/29 03:33:13;;;;;;;7.60;1.13;;;1.60;99.90;;;;;;4872249;29;20577;-87
2021/11/29 03:35:40;;;;;;;5.63;1.58;;;1.70;99.90;;;;;;4903834;29;20054;-88
2021/11/29 03:38:06;;;;;;;4.68;0.93;;;1.70;99.90;;;;;;4870794;29;20068;-85
2021/11/29 03:40:38;;;;;;;4.50;0.70;;;1.70;99.90;;;;;;4877444;29;20040;-86
2021/11/29 03:43:05;;;;;;;7.28;1.20;;;1.70;99.90;;;;;;4871100;29;20036;-85
2021/11/29 03:45:31;;;;;;;4.63;0.70;;;1.70;99.90;;;;;;4892330;29;20139;-87
2021/11/29 03:47:57;;;;;;;3.30;0.77;;;1.70;99.90;;;;;;4898359;29;20528;-86
2021/11/29 03:50:23;;;;;;;10.43;1.10;;;1.70;99.90;;;;;;4893081;29;20035;-86
2021/11/29 03:52:49;;;;;;;8.30;1.10;;;1.70;99.90;;;;;;4879258;29;20127;-87
2021/11/29 03:55:16;;;;;;;7.65;1.02;;;1.70;99.90;;;;;;4862348;29;20126;-85
2021/11/29 03:57:42;;;;;;;10.85;1.52;;;1.70;99.90;;;;;;4896773;29;20071;-86
2021/11/29 04:00:08;;;;;;;6.30;0.90;;;1.70;99.90;;;;;;4871052;29;20044;-86
2021/11/29 04:02:34;;;;;;;10.45;0.95;;;1.70;99.90;;;;;;4863685;29;20051;-85
2021/11/29 04:05:00;;;;;;;5.43;1.00;;;1.70;99.90;;;;;;4888057;29;20080;-85
2021/11/29 04:07:26;;;;;;;7.28;0.80;;;1.60;99.90;;;;;;4876390;29;20047;-86
2021/11/29 04:09:51;;;;;;;12.45;1.38;;;1.60;99.90;;;;;;4875799;29;20047;-86
2021/11/29 04:12:21;;;;;;;5.38;1.02;;;1.60;99.90;;;;;;4878574;29;20079;-86
2021/11/29 04:14:49;;;;;;;6.85;0.90;;;1.60;99.90;;;;;;4867797;29;20059;-87
2021/11/29 04:17:15;;;;;;;9.13;1.00;;;1.60;99.90;;;;;;4889714;29;20170;-86
2021/11/29 04:19:44;;;;;;;11.60;1.58;;;1.70;99.90;;;;;;4877125;29;20530;-86
2021/11/29 04:22:10;;;;;;;5.63;1.00;;;1.70;99.90;;;;;;4878658;29;20432;-85
2021/11/29 04:24:39;;;;;;;9.00;1.05;;;1.70;99.90;;;;;;4896014;29;20083;-85
2021/11/29 04:27:06;;;;;;;10.05;1.00;;;1.70;99.90;;;;;;4874370;29;20044;-86
2021/11/29 04:29:35;;;;;;;5.10;0.88;;;1.70;99.90;;;;;;4867416;29;20407;-87
2021/11/29 04:32:01;;;;;;;7.05;0.90;;;1.80;99.90;;;;;;4906167;29;20036;-87
2021/11/29 04:34:27;;;;;;;2.25;0.68;;;1.80;99.90;;;;;;4860068;29;20127;-88
2021/11/29 04:36:52;;;;;;;8.80;0.77;;;1.80;99.90;;;;;;4864153;29;20099;-86
2021/11/29 04:39:19;;;;;;;13.23;0.95;;;1.80;99.90;;;;;;4885515;29;20072;-86
2021/11/29 04:41:45;;;;;;;5.60;0.70;;;1.70;99.90;;;;;;4876906;29;21513;-87
2021/11/29 04:44:11;;;;;;;8.18;1.35;;;1.70;99.90;;;;;;4874427;29;20159;-87
2021/11/29 04:46:37;;;;;;;8.05;0.80;;;1.70;99.90;;;;;;4897393;29;20474;-86
2021/11/29 04:49:03;;;;;;;3.42;0.60;;;1.60;99.90;;;;;;4889267;29;20040;-87
2021/11/29 04:51:30;;;;;;;10.98;0.80;;;1.60;99.90;;;;;;4895714;29;20074;-86
2021/11/29 04:53:56;;;;;;;6.03;0.70;;;1.50;99.90;;;;;;4921713;29;20036;-87
2021/11/29 04:56:22;;;;;;;5.45;1.00;;;1.50;99.90;;;;;;4877726;29;20043;-86
2021/11/29 04:58:48;;;;;;;2.75;0.80;;;1.50;99.90;;;;;;4893730;29;20442;-87
2021/11/29 05:01:14;;;;;;;3.78;0.90;;;1.50;99.90;;;;;;4873711;29;20071;-86
2021/11/29 05:03:40;;;;;;;12.93;1.00;;;1.40;99.90;;;;;;4904182;29;20075;-87
2021/11/29 05:06:06;;;;;;;7.75;0.70;;;1.40;99.90;;;;;;4866684;29;20039;-87
2021/11/29 05:08:32;;;;;;;5.32;0.82;;;1.40;99.90;;;;;;4894117;29;20495;-87
2021/11/29 05:10:59;;;;;;;5.20;0.68;;;1.40;99.90;;;;;;4886540;29;20032;-87
2021/11/29 05:13:25;;;;;;;8.98;0.93;;;1.30;99.90;;;;;;4885561;29;20547;-87
2021/11/29 05:15:51;;;;;;;6.78;0.90;;;1.40;99.90;;;;;;4891652;29;20134;-87
2021/11/29 05:18:17;;;;;;;6.22;0.70;;;1.30;99.90;;;;;;4889864;29;20051;-86
2021/11/29 05:20:43;;;;;;;1.38;0.52;;;1.30;99.90;;;;;;4907494;29;20050;-88
2021/11/29 05:23:11;;;;;;;4.82;0.80;;;1.30;99.90;;;;;;4877769;29;20054;-86
2021/11/29 05:25:38;;;;;;;4.70;0.80;;;1.30;99.90;;;;;;4878497;29;20127;-87
2021/11/29 05:28:04;;;;;;;2.50;0.80;;;1.20;99.90;;;;;;4875842;29;22723;-86
2021/11/29 05:30:30;;;;;;;4.63;0.80;;;1.30;99.90;;;;;;4893651;29;20126;-86
2021/11/29 05:32:56;;;;;;;9.35;0.90;;;1.20;99.90;;;;;;4864064;29;20138;-86
2021/11/29 05:35:22;;;;;;;3.55;1.00;;;1.20;99.90;;;;;;4877821;29;20098;-86
2021/11/29 05:37:50;;;;;;;12.05;1.10;;;1.20;99.90;;;;;;4917586;29;20048;-87
2021/11/29 05:40:16;;;;;;;4.10;0.93;;;1.10;99.90;;;;;;4880994;29;20049;-86
2021/11/29 05:42:43;;;;;;;10.32;1.27;;;1.10;99.90;;;;;;4886732;29;20044;-87
2021/11/29 05:45:11;;;;;;;4.00;1.17;;;1.10;99.90;;;;;;4885043;29;20087;-87
2021/11/29 05:47:37;;;;;;;8.25;1.50;;;1.20;99.90;;;;;;4898919;29;20052;-87
2021/11/29 05:50:08;;;;;;;5.85;1.52;;;1.20;99.90;;;;;;4861018;29;20080;-86
2021/11/29 05:52:34;;;;;;;6.28;2.08;;;1.20;99.90;;;;;;4893724;29;20051;-88
2021/11/29 05:55:00;;;;;;;4.90;1.60;;;1.20;99.90;;;;;;4871764;29;20048;-86
2021/11/29 05:57:26;;;;;;;6.18;2.10;;;1.30;99.90;;;;;;4890876;29;20075;-86
2021/11/29 05:59:52;;;;;;;8.98;2.53;;;1.20;99.90;;;;;;4916832;29;20339;-86
2021/11/29 06:02:18;;;;;;;7.28;2.17;;;1.20;99.90;;;;;;4863678;29;20044;-85
2021/11/29 06:04:44;;;;;;;11.80;2.53;;;1.20;99.90;;;;;;4857759;29;20040;-87
2021/11/29 06:07:09;;;;;;;8.13;2.60;;;1.30;99.90;;;;;;4860466;29;20052;-86
2021/11/29 06:09:35;;;;;;;8.50;3.30;;;1.30;99.90;;;;;;4883468;29;20130;-87
2021/11/29 06:12:01;;;;;;;11.93;3.42;;;1.40;99.90;;;;;;4905092;29;20538;-86
2021/11/29 06:14:27;;;;;;;7.60;3.00;;;1.40;99.90;;;;;;4878312;29;20147;-86
2021/11/29 06:16:54;;;;;;;9.75;3.67;;;1.40;99.90;;;;;;4865543;29;20035;-87
2021/11/29 06:19:20;;;;;;;11.77;3.63;;;1.40;99.90;;;;;;4892432;29;20070;-87
2021/11/29 06:21:46;;;;;;;10.07;3.33;;;1.40;99.90;;;;;;4893572;29;20047;-87
2021/11/29 06:24:12;;;;;;;11.45;3.28;;;1.40;99.90;;;;;;4884355;29;20051;-86
2021/11/29 06:31:06;;;;;;;15.18;3.40;;;1.30;99.90;;;;;;4855428;29;20048;-87
2021/11/29 06:38:04;;;;;;;11.70;2.92;;;1.00;99.90;;;;;;4866762;29;22007;-87
2021/11/29 06:41:04;;;;;;;11.60;3.05;;;0.90;99.90;;;;;;4885820;29;20083;-87
2021/11/29 06:43:34;;;;;;;20.50;2.90;;;0.90;99.90;;;;;;4895964;29;20047;-87
2021/11/29 06:50:59;;;;;;;17.25;3.53;;;0.70;99.90;;;;;;4828882;29;20860;-86
2021/11/29 06:53:28;;;;;;;13.50;3.38;;;0.60;99.90;;;;;;4814740;29;20553;-87
2021/11/29 06:55:56;;;;;;;9.35;3.40;;;0.60;99.90;;;;;;4818466;29;20049;-87
2021/11/29 06:58:24;;;;;;;19.88;4.03;;;0.60;99.90;;;;;;4835484;29;20120;-88
2021/11/29 07:00:50;;;;;;;8.48;3.70;;;0.60;99.90;;;;;;4884827;29;20829;-88
2021/11/29 07:03:17;;;;;;;17.58;4.47;;;0.60;99.90;;;;;;4893043;29;20162;-87
2021/11/29 07:05:46;;;;;;;12.00;3.72;;;0.60;99.90;;;;;;4892120;29;20040;-87
2021/11/29 07:08:15;;;;;;;21.50;4.32;;;0.50;99.90;;;;;;4877842;29;20066;-87
2021/11/29 07:10:43;;;;;;;19.83;4.50;;;0.50;99.90;;;;;;4886700;29;20040;-87
2021/11/29 07:13:11;;;;;;;17.67;4.13;;;0.50;99.90;;;;;;4896131;29;20032;-87
2021/11/29 07:15:46;;;;;;;16.35;3.95;;;0.50;99.90;;;;;;4893050;29;20547;-87
2021/11/29 07:19:05;;;;;;;26.55;4.80;;;0.40;99.90;;;;;;4928282;29;20096;-87
2021/11/29 07:21:31;;;;;;;14.13;4.28;;;0.40;99.90;;;;;;4910514;29;20122;-87
2021/11/29 07:23:57;;;;;;;20.05;4.68;;;0.40;99.90;;;;;;4887161;29;20135;-87
2021/11/29 07:26:24;;;;;;;30.20;4.90;;;0.40;99.90;;;;;;4890972;29;20047;-87
2021/11/29 07:28:50;;;;;;;20.30;4.22;;;0.40;99.90;;;;;;4910720;29;20039;-87
2021/11/29 07:31:16;;;;;;;18.85;4.30;;;0.40;99.90;;;;;;4886533;29;20040;-88
2021/11/29 07:33:44;;;;;;;22.35;4.43;;;0.40;99.90;;;;;;4900190;29;20032;-88
2021/11/29 07:36:10;;;;;;;22.00;4.32;;;0.30;99.90;;;;;;4925149;29;20076;-87
2021/11/29 07:38:38;;;;;;;22.50;5.22;;;0.30;99.90;;;;;;4894524;29;20773;-88
2021/11/29 07:41:04;;;;;;;22.83;4.57;;;0.30;99.90;;;;;;4909337;29;20051;-88
2021/11/29 07:43:30;;;;;;;24.50;4.47;;;0.30;99.90;;;;;;4892997;29;20043;-87
2021/11/29 07:46:01;;;;;;;21.17;4.88;;;0.30;99.90;;;;;;4919763;29;20105;-88
2021/11/29 07:48:29;;;;;;;16.55;4.53;;;0.40;99.90;;;;;;4882793;29;20044;-88
2021/11/29 07:50:56;;;;;;;31.23;5.72;;;0.30;99.90;;;;;;4880987;29;20119;-88
2021/11/29 07:53:22;;;;;;;32.67;5.13;;;0.30;99.90;;;;;;4910374;29;20046;-87
2021/11/29 07:55:48;;;;;;;25.52;5.20;;;0.30;99.90;;;;;;4914042;29;20074;-88
2021/11/29 07:58:16;;;;;;;28.95;5.20;;;0.20;99.90;;;;;;4926418;29;20046;-88
2021/11/29 08:00:43;;;;;;;29.50;5.32;;;0.20;99.90;;;;;;4906985;29;20487;-88
2021/11/29 08:03:12;;;;;;;21.00;5.10;;;0.20;99.90;;;;;;4905213;29;20054;-88
2021/11/29 08:05:39;;;;;;;22.70;4.90;;;0.20;99.90;;;;;;4925742;29;20040;-88
2021/11/29 08:08:09;;;;;;;19.58;5.13;;;0.20;99.90;;;;;;4919506;29;20082;-88
2021/11/29 08:10:37;;;;;;;20.45;5.30;;;0.20;99.90;;;;;;4930037;29;20036;-88
2021/11/29 08:13:07;;;;;;;27.85;5.68;;;0.20;99.90;;;;;;4927838;29;20077;-89
2021/11/29 08:15:37;;;;;;;37.83;6.45;;;0.20;99.90;;;;;;4892666;29;20056;-88
2021/11/29 08:18:07;;;;;;;31.35;6.03;;;0.30;99.90;;;;;;4931249;29;20079;-88
2021/11/29 08:20:33;;;;;;;31.05;6.43;;;0.30;99.90;;;;;;4895654;29;20207;-88
2021/11/29 08:23:02;;;;;;;21.65;5.85;;;0.30;99.90;;;;;;4918808;29;20075;-88
2021/11/29 08:25:32;;;;;;;27.00;6.65;;;0.30;99.90;;;;;;4897336;29;20035;-88
2021/11/29 08:27:58;;;;;;;25.65;6.53;;;0.30;99.90;;;;;;4930729;29;20051;-88
2021/11/29 08:30:25;;;;;;;22.70;6.90;;;0.30;99.90;;;;;;4900636;29;20406;-88
2021/11/29 08:32:52;;;;;;;29.33;7.30;;;0.40;99.90;;;;;;4899941;29;20047;-89
2021/11/29 08:35:19;;;;;;;29.85;7.88;;;0.40;99.90;;;;;;4907575;29;20066;-89
2021/11/29 08:37:52;;;;;;;30.45;7.68;;;0.50;99.90;;;;;;4901462;29;20487;-89
2021/11/29 08:40:20;;;;;;;33.42;7.97;;;0.60;99.90;;;;;;4903864;29;20055;-89
2021/11/29 08:42:49;;;;;;;27.35;8.30;;;0.60;99.90;;;;;;4889391;29;20039;-89
2021/11/29 08:45:18;;;;;;;29.90;8.15;;;0.60;99.90;;;;;;4878035;29;20178;-88
2021/11/29 08:47:44;;;;;;;28.95;8.10;;;0.70;99.90;;;;;;4915193;29;20091;-88
2021/11/29 08:50:10;;;;;;;37.35;9.45;;;0.70;99.90;;;;;;4890348;29;20040;-88
2021/11/29 08:52:37;;;;;;;37.88;9.52;;;0.80;99.90;;;;;;4874761;29;20411;-88
2021/11/29 08:55:11;;;;;;;34.00;8.98;;;0.90;99.90;;;;;;4884427;29;20039;-88
2021/11/29 08:57:37;;;;;;;33.40;9.75;;;0.90;99.90;;;;;;4884887;29;20039;-88
2021/11/29 09:00:13;;;;;;;34.10;8.95;;;0.90;99.90;;;;;;4905669;29;20123;-88
2021/11/29 09:02:39;;;;;;;33.00;9.30;;;0.90;99.90;;;;;;4901148;29;20517;-88
2021/11/29 09:05:07;;;;;;;35.88;8.85;;;0.90;99.90;;;;;;4899772;29;20044;-88
2021/11/29 09:07:34;;;;;;;32.10;9.15;;;1.00;99.90;;;;;;4891164;29;20087;-88
2021/11/29 09:10:00;;;;;;;28.33;8.93;;;1.10;99.90;;;;;;4919642;29;20533;-89
2021/11/29 09:12:26;;;;;;;28.00;10.05;;;1.10;99.90;;;;;;4935824;29;20126;-88
2021/11/29 09:14:52;;;;;;;32.03;9.63;;;1.20;99.90;;;;;;4923386;29;20038;-88
2021/11/29 09:17:20;;;;;;;30.98;9.77;;;1.30;99.90;;;;;;4884353;29;20048;-89
2021/11/29 09:19:49;;;;;;;41.28;10.15;;;1.30;99.90;;;;;;4874686;29;20092;-89
2021/11/29 09:22:18;;;;;;;34.40;9.48;;;1.40;99.90;;;;;;4895737;29;20562;-87
2021/11/29 09:24:45;;;;;;;46.65;10.65;;;1.40;99.90;;;;;;4908964;29;20067;-89
2021/11/29 09:27:16;;;;;;;33.40;9.45;;;1.50;99.90;;;;;;4904464;29;20047;-88
2021/11/29 09:29:50;;;;;;;28.67;9.75;;;1.60;99.90;;;;;;4908280;29;20423;-89
2021/11/29 09:32:19;;;;;;;31.95;9.65;;;1.70;99.90;;;;;;4940753;29;20063;-88
2021/11/29 09:34:54;;;;;;;33.88;9.95;;;1.70;99.90;;;;;;4919512;29;20048;-87
2021/11/29 09:37:22;;;;;;;36.72;10.40;;;1.80;99.90;;;;;;4898927;29;20103;-88
2021/11/29 09:39:59;;;;;;;32.20;9.68;;;1.80;99.90;;;;;;4904697;29;20488;-89
2021/11/29 09:42:25;;;;;;;35.75;10.25;;;1.90;99.90;;;;;;4907773;29;20388;-89
2021/11/29 09:45:43;;;;;;;37.75;11.18;;;2.00;99.90;;;;;;4908860;29;20070;-89
2021/11/29 09:48:21;;;;;;;33.53;10.80;;;2.00;99.90;;;;;;4886517;29;20107;-89
2021/11/29 09:50:57;;;;;;;34.80;9.80;;;2.10;99.90;;;;;;4916837;29;20446;-88
2021/11/29 09:57:18;;;;;;;31.52;11.10;;;2.30;99.90;;;;;;4844359;29;20256;-89
2021/11/29 10:03:58;;;;;;;37.42;11.70;;;2.60;99.90;;;;;;4823278;29;20045;-89
2021/11/29 10:06:30;;;;;;;37.88;12.15;;;2.90;99.90;;;;;;4816509;29;20057;-89
2021/11/29 10:08:56;;;;;;;32.28;12.20;;;3.00;99.90;;;;;;4881495;29;20118;-88
2021/11/29 10:11:25;;;;;;;28.83;11.60;;;3.20;99.90;;;;;;4857267;29;20044;-89
2021/11/29 10:13:58;;;;;;;26.73;10.40;;;3.20;99.90;;;;;;4907344;29;20395;-89
2021/11/29 10:16:44;;;;;;;19.17;8.80;;;3.40;99.90;;;;;;4888374;29;20081;-88
2021/11/29 10:19:48;;;;;;;32.10;9.95;;;3.50;99.90;;;;;;4916339;29;20040;-88
2021/11/29 10:22:38;;;;;;;31.58;11.52;;;3.70;99.90;;;;;;4898992;29;20081;-87
2021/11/29 10:25:21;;;;;;;20.15;9.20;;;3.70;99.90;;;;;;4858144;29;20055;-89
2021/11/29 10:28:09;;;;;;;19.85;8.77;;;3.80;99.90;;;;;;4896596;29;20035;-88
2021/11/29 10:30:40;;;;;;;20.55;9.43;;;3.80;99.90;;;;;;4917475;29;20051;-89
2021/11/29 10:33:09;;;;;;;19.58;8.70;;;3.80;99.90;;;;;;4887657;29;20040;-88
2021/11/29 10:35:40;;;;;;;19.75;8.95;;;3.80;99.90;;;;;;4882491;29;20087;-88
2021/11/29 10:38:06;;;;;;;18.33;7.90;;;3.90;99.90;;;;;;4912618;29;20058;-88
2021/11/29 10:40:37;;;;;;;14.73;8.50;;;3.90;99.90;;;;;;4888251;29;20127;-87
2021/11/29 10:43:09;;;;;;;22.92;9.00;;;3.90;99.90;;;;;;4896924;29;20051;-88
2021/11/29 10:45:52;;;;;;;20.10;8.50;;;3.90;99.90;;;;;;4913950;29;20036;-88
2021/11/29 10:48:26;;;;;;;15.27;7.75;;;3.90;99.90;;;;;;4917402;29;20091;-87
2021/11/29 10:51:25;;;;;;;13.75;7.32;;;3.90;99.90;;;;;;4909350;29;20039;-87
2021/11/29 10:54:09;;;;;;;18.75;7.97;;;3.90;99.90;;;;;;4913486;29;20066;-90
2021/11/29 10:57:02;;;;;;;18.08;8.13;;;3.90;99.90;;;;;;4924892;29;20036;-88
2021/11/29 10:59:54;;;;;;;18.08;8.95;;;3.90;99.90;;;;;;4917132;29;20047;-88
2021/11/29 11:03:00;;;;;;;19.20;8.20;;;3.90;99.90;;;;;;4924628;29;20326;-87
2021/11/29 11:06:13;;;;;;;19.13;8.52;;;4.00;99.90;;;;;;4900771;29;20058;-87
2021/11/29 11:08:44;;;;;;;18.90;8.25;;;4.00;99.90;;;;;;4882268;29;20047;-88
2021/11/29 11:11:41;;;;;;;19.88;9.48;;;4.00;99.90;;;;;;4915678;29;20496;-87
2021/11/29 11:14:22;;;;;;;20.33;9.80;;;4.00;99.90;;;;;;4924971;29;20419;-88
2021/11/29 11:17:02;;;;;;;25.70;10.18;;;4.10;99.90;;;;;;4923035;29;20113;-88
2021/11/29 11:19:37;;;;;;;17.60;8.90;;;4.10;99.90;;;;;;4891108;29;20055;-85
2021/11/29 11:22:09;;;;;;;22.20;9.93;;;4.20;99.90;;;;;;4916584;29;20062;-84
2021/11/29 11:24:38;;;;;;;25.00;11.38;;;4.20;99.90;;;;;;4920429;29;20047;-85
2021/11/29 11:27:06;;;;;;;28.05;13.50;;;4.20;99.90;;;;;;4918367;29;20043;-86
2021/11/29 11:29:33;;;;;;;24.27;11.82;;;4.40;99.90;;;;;;4912241;29;20071;-84
2021/11/29 11:32:14;;;;;;;24.10;10.35;;;4.50;99.90;;;;;;4922111;29;20051;-85
2021/11/29 11:34:43;;;;;;;16.42;9.10;;;4.70;99.90;;;;;;4911842;29;20093;-84
2021/11/29 11:37:10;;;;;;;11.98;6.82;;;4.80;99.90;;;;;;4904034;29;20139;-85
2021/11/29 11:39:37;;;;;;;10.13;6.07;;;4.90;99.90;;;;;;4890325;29;20078;-84
2021/11/29 11:42:03;;;;;;;11.10;7.30;;;4.90;99.90;;;;;;4887371;29;20044;-84
2021/11/29 11:44:33;;;;;;;12.45;6.85;;;4.90;99.90;;;;;;4879954;29;20044;-84
2021/11/29 11:47:16;;;;;;;13.38;8.45;;;5.00;99.90;;;;;;4911395;29;20102;-86
2021/11/29 11:50:34;;;;;;;10.02;7.03;;;5.20;99.90;;;;;;4897986;29;20061;-86
2021/11/29 11:53:04;;;;;;;12.68;7.07;;;5.40;99.90;;;;;;4891722;29;20101;-86
2021/11/29 11:55:34;;;;;;;13.00;8.20;;;5.50;99.90;;;;;;4938616;29;20100;-86
2021/11/29 11:58:10;;;;;;;11.25;7.47;;;5.50;99.90;;;;;;4905932;29;20044;-86
2021/11/29 12:00:41;;;;;;;15.20;8.40;;;5.50;99.90;;;;;;4921993;29;20043;-86
2021/11/29 12:03:11;;;;;;;16.55;9.07;;;5.40;99.90;;;;;;4908727;29;20040;-87
2021/11/29 12:05:56;;;;;;;13.73;8.07;;;5.50;99.90;;;;;;4906223;29;20050;-85
2021/11/29 12:08:49;;;;;;;17.27;8.13;;;5.60;99.90;;;;;;4942368;28;20137;-85
2021/11/29 12:11:31;;;;;;;;;;;5.70;99.90;;;;;;4876077;29;20872;-86
2021/11/29 12:14:08;;;;;;;14.27;7.43;;;5.60;99.90;;;;;;4925034;29;19957;-85
2021/11/29 12:16:39;;;;;;;12.25;7.15;;;5.60;99.90;;;;;;4907748;29;20035;-85
2021/11/29 12:19:26;;;;;;;9.73;6.53;;;5.50;99.90;;;;;;4924725;29;20054;-85
2021/11/29 12:21:54;;;;;;;10.60;6.85;;;5.50;99.90;;;;;;4915816;29;20122;-85
2021/11/29 12:24:27;;;;;;;10.07;7.40;;;5.70;99.90;;;;;;4908303;29;20103;-85
2021/11/29 12:27:05;;;;;;;12.32;7.60;;;5.60;99.90;;;;;;4907254;29;20083;-85
2021/11/29 12:29:59;;;;;;;11.93;6.15;;;5.50;99.90;;;;;;4918943;29;20043;-86
2021/11/29 12:33:01;;;;;;;10.90;6.18;;;5.30;99.90;;;;;;4917445;29;20070;-85
2021/11/29 12:35:48;;;;;;;8.80;5.55;;;5.10;99.90;;;;;;4875796;29;20411;-85
2021/11/29 12:38:50;;;;;;;10.38;6.00;;;5.00;99.90;;;;;;4929148;29;20043;-85
2021/11/29 12:41:36;;;;;;;16.38;6.15;;;5.00;99.90;;;;;;4917431;29;20044;-86
2021/11/29 12:44:02;;;;;;;11.07;6.00;;;4.90;99.90;;;;;;4883042;29;20475;-85
2021/11/29 12:46:30;;;;;;;9.93;6.15;;;4.90;99.90;;;;;;4885745;29;20047;-84
2021/11/29 12:49:04;;;;;;;11.90;6.38;;;4.90;99.90;;;;;;4891133;29;20047;-85
2021/11/29 12:51:55;;;;;;;9.30;6.03;;;4.80;99.90;;;;;;4897000;29;20043;-85
2021/11/29 12:54:46;;;;;;;12.63;6.32;;;4.80;99.90;;;;;;4900862;29;20375;-85
2021/11/29 12:57:18;;;;;;;13.98;7.53;;;4.60;99.90;;;;;;4902408;29;20051;-85
2021/11/29 12:59:55;;;;;;;13.55;7.90;;;4.70;99.90;;;;;;4916244;29;20070;-85
2021/11/29 13:02:44;;;;;;;10.73;7.28;;;4.70;99.90;;;;;;4921428;29;20391;-85
2021/11/29 13:05:25;;;;;;;13.05;7.63;;;4.70;99.90;;;;;;4907096;29;20542;-85
2021/11/29 13:08:06;;;;;;;10.55;6.45;;;4.80;99.90;;;;;;4896545;29;20411;-86
2021/11/29 13:11:05;;;;;;;13.55;7.70;;;4.90;99.90;;;;;;4897405;29;20043;-85
2021/11/29 13:14:00;;;;;;;10.82;6.63;;;4.90;99.90;;;;;;4939361;29;20090;-86
2021/11/29 13:16:25;;;;;;;11.70;6.82;;;5.00;99.90;;;;;;4893606;29;20040;-85
2021/11/29 13:18:53;;;;;;;9.27;6.28;;;5.10;99.90;;;;;;4923555;29;20047;-85
2021/11/29 13:21:23;;;;;;;13.43;6.95;;;5.10;99.90;;;;;;4911993;29;20043;-85
2021/11/29 13:24:07;;;;;;;15.30;7.50;;;5.10;99.90;;;;;;4928532;29;20152;-85
2021/11/29 13:26:37;;;;;;;12.45;7.10;;;5.20;99.90;;;;;;4905061;29;20082;-86
2021/11/29 13:29:34;;;;;;;9.73;6.70;;;5.30;99.90;;;;;;4889956;29;20036;-85
2021/11/29 13:32:06;;;;;;;11.50;6.30;;;5.40;99.90;;;;;;4888302;29;20051;-85
2021/11/29 13:34:47;;;;;;;13.25;6.63;;;5.50;99.90;;;;;;4925296;28;20082;-85
2021/11/29 13:37:24;;;;;;;38.53;10.63;;;5.70;99.90;;;;;;4933105;29;20040;-86
2021/11/29 13:40:06;;;;;;;11.43;6.18;;;5.90;99.90;;;;;;4898617;29;20269;-86
2021/11/29 13:42:59;;;;;;;11.85;6.85;;;6.00;99.90;;;;;;4927451;29;20035;-85
2021/11/29 13:45:32;;;;;;;;;;;6.00;99.90;;;;;;4882752;29;20130;-85
2021/11/29 13:48:27;;;;;;;11.48;6.03;;;5.90;99.90;;;;;;4893824;29;20408;-86
2021/11/29 13:51:23;;;;;;;13.50;6.13;;;5.90;99.90;;;;;;4886238;29;20066;-84
2021/11/29 13:53:53;;;;;;;14.73;6.70;;;5.80;99.90;;;;;;4920502;29;20127;-84
2021/11/29 13:56:34;;;;;;;11.43;6.30;;;5.70;99.90;;;;;;4874088;29;20047;-83